sensor_id;sensor_type;location;lat;lon;timestamp;temperature;humidity
75321;DHT22;68337;52.196;5.660;2024-03-06T00:01:54;6.70;99.90
75321;DHT22;68337;52.196;5.660;2024-03-06T00:04:21;6.70;99.90
75321;DHT22;68337;52.196;5.660;2024-03-06T00:06:47;6.70;99.90
75321;DHT22;68337;52.196;5.660;2024-03-06T00:09:12;6.70;99.90
75321;DHT22;68337;52.196;5.660;2024-03-06T00:11:38;6.60;99.90
75321;DHT22;68337;52.196;5.660;2024-03-06T00:14:05;6.60;99.90
75321;DHT22;68337;52.196;5.660;2024-03-06T00:16:32;6.60;99.90
75321;DHT22;68337;52.196;5.660;2024-03-06T00:18:59;6.60;99.90
75321;DHT22;68337;52.196;5.660;2024-03-06T00:21:25;6.60;99.90
75321;DHT22;68337;52.196;5.660;2024-03-06T00:23:51;6.60;99.90
75321;DHT22;68337;52.196;5.660;2024-03-06T00:26:17;6.60;99.90
75321;DHT22;68337;52.196;5.660;2024-03-06T00:28:42;6.60;99.90
75321;DHT22;68337;52.196;5.660;2024-03-06T00:31:08;6.60;99.90
75321;DHT22;68337;52.196;5.660;2024-03-06T00:33:34;6.60;99.90
75321;DHT22;68337;52.196;5.660;2024-03-06T00:35:59;6.60;99.90
75321;DHT22;68337;52.196;5.660;2024-03-06T00:38:25;6.60;99.90
75321;DHT22;68337;52.196;5.660;2024-03-06T00:40:51;6.60;99.90
75321;DHT22;68337;52.196;5.660;2024-03-06T00:43:17;6.60;99.90
75321;DHT22;68337;52.196;5.660;2024-03-06T00:45:43;6.60;99.90
75321;DHT22;68337;52.196;5.660;2024-03-06T00:48:09;6.60;99.90
75321;DHT22;68337;52.196;5.660;2024-03-06T00:50:35;6.60;99.90
75321;DHT22;68337;52.196;5.660;2024-03-06T00:53:00;6.60;99.90
75321;DHT22;68337;52.196;5.660;2024-03-06T00:55:26;6.60;99.90
75321;DHT22;68337;52.196;5.660;2024-03-06T00:57:52;6.60;99.90
75321;DHT22;68337;52.196;5.660;2024-03-06T01:00:18;6.60;99.90
75321;DHT22;68337;52.196;5.660;2024-03-06T01:02:44;6.50;99.90
75321;DHT22;68337;52.196;5.660;2024-03-06T01:05:10;6.50;99.90
75321;DHT22;68337;52.196;5.660;2024-03-06T01:07:54;6.50;99.90
75321;DHT22;68337;52.196;5.660;2024-03-06T01:10:22;6.50;99.90
75321;DHT22;68337;52.196;5.660;2024-03-06T01:12:48;6.40;99.90
75321;DHT22;68337;52.196;5.660;2024-03-06T01:15:14;6.40;99.90
75321;DHT22;68337;52.196;5.660;2024-03-06T01:17:39;6.40;99.90
75321;DHT22;68337;52.196;5.660;2024-03-06T01:20:06;6.30;99.90
75321;DHT22;68337;52.196;5.660;2024-03-06T01:22:34;6.30;99.90
75321;DHT22;68337;52.196;5.660;2024-03-06T01:25:00;6.20;99.90
75321;DHT22;68337;52.196;5.660;2024-03-06T01:27:27;6.20;99.90
75321;DHT22;68337;52.196;5.660;2024-03-06T01:29:52;6.10;99.90
75321;DHT22;68337;52.196;5.660;2024-03-06T01:32:18;6.10;99.90
75321;DHT22;68337;52.196;5.660;2024-03-06T01:34:44;6.10;99.90
75321;DHT22;68337;52.196;5.660;2024-03-06T01:37:09;6.00;99.90
75321;DHT22;68337;52.196;5.660;2024-03-06T01:39:36;6.00;99.90
75321;DHT22;68337;52.196;5.660;2024-03-06T01:42:02;5.90;99.90
75321;DHT22;68337;52.196;5.660;2024-03-06T01:44:29;5.80;99.90
75321;DHT22;68337;52.196;5.660;2024-03-06T01:46:54;5.80;99.90
75321;DHT22;68337;52.196;5.660;2024-03-06T01:49:21;5.70;99.90
75321;DHT22;68337;52.196;5.660;2024-03-06T01:51:50;5.70;99.90
75321;DHT22;68337;52.196;5.660;2024-03-06T01:54:17;5.70;99.90
75321;DHT22;68337;52.196;5.660;2024-03-06T01:56:45;5.60;99.90
75321;DHT22;68337;52.196;5.660;2024-03-06T01:59:13;5.60;99.90
75321;DHT22;68337;52.196;5.660;2024-03-06T02:01:39;5.50;99.90
75321;DHT22;68337;52.196;5.660;2024-03-06T02:04:08;5.50;99.90
75321;DHT22;68337;52.196;5.660;2024-03-06T02:06:35;5.50;99.90
75321;DHT22;68337;52.196;5.660;2024-03-06T02:09:01;5.60;99.90
75321;DHT22;68337;52.196;5.660;2024-03-06T02:11:28;5.60;99.90
75321;DHT22;68337;52.196;5.660;2024-03-06T02:13:55;5.50;99.90
75321;DHT22;68337;52.196;5.660;2024-03-06T02:16:21;5.50;99.90
75321;DHT22;68337;52.196;5.660;2024-03-06T02:18:53;5.50;99.90
75321;DHT22;68337;52.196;5.660;2024-03-06T02:21:20;5.50;99.90
75321;DHT22;68337;52.196;5.660;2024-03-06T02:23:46;5.50;99.90
75321;DHT22;68337;52.196;5.660;2024-03-06T02:26:12;5.50;99.90
75321;DHT22;68337;52.196;5.660;2024-03-06T02:28:37;5.50;99.90
75321;DHT22;68337;52.196;5.660;2024-03-06T02:31:03;5.50;99.90
75321;DHT22;68337;52.196;5.660;2024-03-06T02:33:32;5.50;99.90
75321;DHT22;68337;52.196;5.660;2024-03-06T02:35:59;5.50;99.90
75321;DHT22;68337;52.196;5.660;2024-03-06T02:38:25;5.50;99.90
75321;DHT22;68337;52.196;5.660;2024-03-06T02:40:51;5.50;99.90
75321;DHT22;68337;52.196;5.660;2024-03-06T02:43:16;5.50;99.90
75321;DHT22;68337;52.196;5.660;2024-03-06T02:45:42;5.50;99.90
75321;DHT22;68337;52.196;5.660;2024-03-06T02:48:08;5.50;99.90
75321;DHT22;68337;52.196;5.660;2024-03-06T02:50:34;5.50;99.90
75321;DHT22;68337;52.196;5.660;2024-03-06T02:52:59;5.50;99.90
75321;DHT22;68337;52.196;5.660;2024-03-06T02:55:25;5.40;99.90
75321;DHT22;68337;52.196;5.660;2024-03-06T02:57:52;5.40;99.90
75321;DHT22;68337;52.196;5.660;2024-03-06T03:00:18;5.20;99.90
75321;DHT22;68337;52.196;5.660;2024-03-06T03:02:43;5.20;99.90
75321;DHT22;68337;52.196;5.660;2024-03-06T03:05:09;5.10;99.90
75321;DHT22;68337;52.196;5.660;2024-03-06T03:07:35;5.00;99.90
75321;DHT22;68337;52.196;5.660;2024-03-06T03:10:01;4.90;99.90
75321;DHT22;68337;52.196;5.660;2024-03-06T03:12:26;4.90;99.90
75321;DHT22;68337;52.196;5.660;2024-03-06T03:14:52;4.80;99.90
75321;DHT22;68337;52.196;5.660;2024-03-06T03:17:19;4.80;99.90
75321;DHT22;68337;52.196;5.660;2024-03-06T03:19:45;4.80;99.90
75321;DHT22;68337;52.196;5.660;2024-03-06T03:22:11;4.80;99.90
75321;DHT22;68337;52.196;5.660;2024-03-06T03:24:36;4.70;99.90
75321;DHT22;68337;52.196;5.660;2024-03-06T03:27:02;4.60;99.90
75321;DHT22;68337;52.196;5.660;2024-03-06T03:29:29;4.60;99.90
75321;DHT22;68337;52.196;5.660;2024-03-06T03:31:55;4.50;99.90
75321;DHT22;68337;52.196;5.660;2024-03-06T03:34:22;4.40;99.90
75321;DHT22;68337;52.196;5.660;2024-03-06T03:36:48;4.40;99.90
75321;DHT22;68337;52.196;5.660;2024-03-06T03:39:14;4.30;99.90
75321;DHT22;68337;52.196;5.660;2024-03-06T03:41:44;4.30;99.90
75321;DHT22;68337;52.196;5.660;2024-03-06T03:44:17;4.20;99.90
75321;DHT22;68337;52.196;5.660;2024-03-06T03:46:45;4.10;99.90
75321;DHT22;68337;52.196;5.660;2024-03-06T03:49:11;4.10;99.90
75321;DHT22;68337;52.196;5.660;2024-03-06T03:51:38;4.00;99.90
75321;DHT22;68337;52.196;5.660;2024-03-06T03:54:04;3.90;99.90
75321;DHT22;68337;52.196;5.660;2024-03-06T03:56:31;3.90;99.90
75321;DHT22;68337;52.196;5.660;2024-03-06T03:58:57;3.90;99.90
75321;DHT22;68337;52.196;5.660;2024-03-06T04:01:24;3.80;99.90
75321;DHT22;68337;52.196;5.660;2024-03-06T04:03:50;3.80;99.90
75321;DHT22;68337;52.196;5.660;2024-03-06T04:06:16;3.70;99.90
75321;DHT22;68337;52.196;5.660;2024-03-06T04:08:42;3.70;99.90
75321;DHT22;68337;52.196;5.660;2024-03-06T04:11:08;3.60;99.90
75321;DHT22;68337;52.196;5.660;2024-03-06T04:13:36;3.60;99.90
75321;DHT22;68337;52.196;5.660;2024-03-06T04:16:02;3.60;99.90
75321;DHT22;68337;52.196;5.660;2024-03-06T04:18:29;3.50;99.90
75321;DHT22;68337;52.196;5.660;2024-03-06T04:21:01;3.50;99.90
75321;DHT22;68337;52.196;5.660;2024-03-06T04:23:27;3.50;99.90
75321;DHT22;68337;52.196;5.660;2024-03-06T04:25:53;3.40;99.90
75321;DHT22;68337;52.196;5.660;2024-03-06T04:28:18;3.40;99.90
75321;DHT22;68337;52.196;5.660;2024-03-06T04:30:44;3.40;99.90
75321;DHT22;68337;52.196;5.660;2024-03-06T04:33:10;3.40;99.90
75321;DHT22;68337;52.196;5.660;2024-03-06T04:35:39;3.40;99.90
75321;DHT22;68337;52.196;5.660;2024-03-06T04:38:05;3.30;99.90
75321;DHT22;68337;52.196;5.660;2024-03-06T04:40:31;3.30;99.90
75321;DHT22;68337;52.196;5.660;2024-03-06T04:42:57;3.30;99.90
75321;DHT22;68337;52.196;5.660;2024-03-06T04:45:23;3.20;99.90
75321;DHT22;68337;52.196;5.660;2024-03-06T04:47:49;3.30;99.90
75321;DHT22;68337;52.196;5.660;2024-03-06T04:50:15;3.20;99.90
75321;DHT22;68337;52.196;5.660;2024-03-06T04:52:41;3.20;99.90
75321;DHT22;68337;52.196;5.660;2024-03-06T04:55:08;3.10;99.90
75321;DHT22;68337;52.196;5.660;2024-03-06T04:57:37;3.10;99.90
75321;DHT22;68337;52.196;5.660;2024-03-06T05:00:04;3.00;99.90
75321;DHT22;68337;52.196;5.660;2024-03-06T05:02:32;3.00;99.90
75321;DHT22;68337;52.196;5.660;2024-03-06T05:05:00;3.00;99.90
75321;DHT22;68337;52.196;5.660;2024-03-06T05:07:28;3.00;99.90
75321;DHT22;68337;52.196;5.660;2024-03-06T05:09:55;2.90;99.90
75321;DHT22;68337;52.196;5.660;2024-03-06T05:12:21;3.00;99.90
75321;DHT22;68337;52.196;5.660;2024-03-06T05:14:47;3.00;99.90
75321;DHT22;68337;52.196;5.660;2024-03-06T05:17:12;2.90;99.90
75321;DHT22;68337;52.196;5.660;2024-03-06T05:19:41;2.80;99.90
75321;DHT22;68337;52.196;5.660;2024-03-06T05:22:07;2.80;99.90
75321;DHT22;68337;52.196;5.660;2024-03-06T05:24:32;2.80;99.90
75321;DHT22;68337;52.196;5.660;2024-03-06T05:26:58;2.80;99.90
75321;DHT22;68337;52.196;5.660;2024-03-06T05:29:24;2.70;99.90
75321;DHT22;68337;52.196;5.660;2024-03-06T05:31:49;2.70;99.90
75321;DHT22;68337;52.196;5.660;2024-03-06T05:34:15;2.60;99.90
75321;DHT22;68337;52.196;5.660;2024-03-06T05:36:41;2.50;99.90
75321;DHT22;68337;52.196;5.660;2024-03-06T05:39:06;2.40;99.90
75321;DHT22;68337;52.196;5.660;2024-03-06T05:41:33;2.50;99.90
75321;DHT22;68337;52.196;5.660;2024-03-06T05:43:59;2.50;99.90
75321;DHT22;68337;52.196;5.660;2024-03-06T05:46:24;2.50;99.90
75321;DHT22;68337;52.196;5.660;2024-03-06T05:48:51;2.40;99.90
75321;DHT22;68337;52.196;5.660;2024-03-06T05:51:17;2.50;99.90
75321;DHT22;68337;52.196;5.660;2024-03-06T05:53:43;2.40;99.90
75321;DHT22;68337;52.196;5.660;2024-03-06T05:56:09;2.40;99.90
75321;DHT22;68337;52.196;5.660;2024-03-06T05:58:36;2.40;99.90
75321;DHT22;68337;52.196;5.660;2024-03-06T06:01:02;2.30;99.90
75321;DHT22;68337;52.196;5.660;2024-03-06T06:03:30;2.30;99.90
75321;DHT22;68337;52.196;5.660;2024-03-06T06:05:56;2.40;99.90
75321;DHT22;68337;52.196;5.660;2024-03-06T06:08:22;2.40;99.90
75321;DHT22;68337;52.196;5.660;2024-03-06T06:10:48;2.30;99.90
75321;DHT22;68337;52.196;5.660;2024-03-06T06:13:14;2.30;99.90
75321;DHT22;68337;52.196;5.660;2024-03-06T06:15:40;2.30;99.90
75321;DHT22;68337;52.196;5.660;2024-03-06T06:18:06;2.20;99.90
75321;DHT22;68337;52.196;5.660;2024-03-06T06:20:32;2.10;99.90
75321;DHT22;68337;52.196;5.660;2024-03-06T06:22:58;2.20;99.90
75321;DHT22;68337;52.196;5.660;2024-03-06T06:25:24;2.20;99.90
75321;DHT22;68337;52.196;5.660;2024-03-06T06:27:49;2.20;99.90
75321;DHT22;68337;52.196;5.660;2024-03-06T06:30:16;2.20;99.90
75321;DHT22;68337;52.196;5.660;2024-03-06T06:32:42;2.20;99.90
75321;DHT22;68337;52.196;5.660;2024-03-06T06:35:09;2.10;99.90
75321;DHT22;68337;52.196;5.660;2024-03-06T06:37:35;2.10;99.90
75321;DHT22;68337;52.196;5.660;2024-03-06T06:40:02;2.10;99.90
75321;DHT22;68337;52.196;5.660;2024-03-06T06:42:32;2.10;99.90
75321;DHT22;68337;52.196;5.660;2024-03-06T06:44:59;2.10;99.90
75321;DHT22;68337;52.196;5.660;2024-03-06T06:47:25;2.10;99.90
75321;DHT22;68337;52.196;5.660;2024-03-06T06:49:51;2.20;99.90
75321;DHT22;68337;52.196;5.660;2024-03-06T06:52:17;2.20;99.90
75321;DHT22;68337;52.196;5.660;2024-03-06T06:54:42;2.30;99.90
75321;DHT22;68337;52.196;5.660;2024-03-06T06:57:08;2.30;99.90
75321;DHT22;68337;52.196;5.660;2024-03-06T06:59:34;2.30;99.90
75321;DHT22;68337;52.196;5.660;2024-03-06T07:02:03;2.40;99.90
75321;DHT22;68337;52.196;5.660;2024-03-06T07:04:29;2.40;99.90
75321;DHT22;68337;52.196;5.660;2024-03-06T07:06:54;2.50;99.90
75321;DHT22;68337;52.196;5.660;2024-03-06T07:09:20;2.60;99.90
75321;DHT22;68337;52.196;5.660;2024-03-06T07:11:46;2.60;99.90
75321;DHT22;68337;52.196;5.660;2024-03-06T07:14:13;2.70;99.90
75321;DHT22;68337;52.196;5.660;2024-03-06T07:16:45;2.70;99.90
75321;DHT22;68337;52.196;5.660;2024-03-06T07:19:11;2.80;99.90
75321;DHT22;68337;52.196;5.660;2024-03-06T07:21:39;2.90;99.90
75321;DHT22;68337;52.196;5.660;2024-03-06T07:24:05;3.00;99.90
75321;DHT22;68337;52.196;5.660;2024-03-06T07:26:32;3.00;99.90
75321;DHT22;68337;52.196;5.660;2024-03-06T07:28:58;3.00;99.90
75321;DHT22;68337;52.196;5.660;2024-03-06T07:31:24;3.10;99.90
75321;DHT22;68337;52.196;5.660;2024-03-06T07:33:51;3.20;99.90
75321;DHT22;68337;52.196;5.660;2024-03-06T07:36:16;3.20;99.90
75321;DHT22;68337;52.196;5.660;2024-03-06T07:38:42;3.30;99.90
75321;DHT22;68337;52.196;5.660;2024-03-06T07:41:11;3.40;99.90
75321;DHT22;68337;52.196;5.660;2024-03-06T07:43:37;3.50;99.90
75321;DHT22;68337;52.196;5.660;2024-03-06T07:46:04;3.60;99.90
75321;DHT22;68337;52.196;5.660;2024-03-06T07:48:37;3.70;99.90
75321;DHT22;68337;52.196;5.660;2024-03-06T07:51:03;3.80;99.90
75321;DHT22;68337;52.196;5.660;2024-03-06T07:53:29;4.00;99.90
75321;DHT22;68337;52.196;5.660;2024-03-06T07:55:55;4.20;99.90
75321;DHT22;68337;52.196;5.660;2024-03-06T07:58:21;4.30;99.90
75321;DHT22;68337;52.196;5.660;2024-03-06T08:00:47;4.50;99.90
75321;DHT22;68337;52.196;5.660;2024-03-06T08:03:12;4.80;99.90
75321;DHT22;68337;52.196;5.660;2024-03-06T08:05:39;5.00;99.90
75321;DHT22;68337;52.196;5.660;2024-03-06T08:08:05;5.30;99.90
75321;DHT22;68337;52.196;5.660;2024-03-06T08:10:31;5.60;99.90
75321;DHT22;68337;52.196;5.660;2024-03-06T08:12:56;5.80;99.90
75321;DHT22;68337;52.196;5.660;2024-03-06T08:15:23;6.10;99.90
75321;DHT22;68337;52.196;5.660;2024-03-06T08:17:49;6.30;99.90
75321;DHT22;68337;52.196;5.660;2024-03-06T08:20:15;6.60;99.90
75321;DHT22;68337;52.196;5.660;2024-03-06T08:22:42;6.90;99.90
75321;DHT22;68337;52.196;5.660;2024-03-06T08:25:10;7.20;99.90
75321;DHT22;68337;52.196;5.660;2024-03-06T08:27:37;7.40;99.90
75321;DHT22;68337;52.196;5.660;2024-03-06T08:30:04;7.70;99.90
75321;DHT22;68337;52.196;5.660;2024-03-06T08:32:34;8.00;99.90
75321;DHT22;68337;52.196;5.660;2024-03-06T08:35:11;8.30;99.90
75321;DHT22;68337;52.196;5.660;2024-03-06T08:37:38;8.50;99.90
75321;DHT22;68337;52.196;5.660;2024-03-06T08:40:05;8.80;99.90
75321;DHT22;68337;52.196;5.660;2024-03-06T08:42:31;9.10;99.90
75321;DHT22;68337;52.196;5.660;2024-03-06T08:44:58;9.20;99.90
75321;DHT22;68337;52.196;5.660;2024-03-06T08:47:23;9.40;99.90
75321;DHT22;68337;52.196;5.660;2024-03-06T08:49:52;9.60;99.90
75321;DHT22;68337;52.196;5.660;2024-03-06T08:52:18;9.80;99.90
75321;DHT22;68337;52.196;5.660;2024-03-06T08:54:43;10.00;99.90
75321;DHT22;68337;52.196;5.660;2024-03-06T08:57:10;10.00;99.90
75321;DHT22;68337;52.196;5.660;2024-03-06T08:59:36;10.10;99.90
75321;DHT22;68337;52.196;5.660;2024-03-06T09:02:13;10.40;99.90
75321;DHT22;68337;52.196;5.660;2024-03-06T09:04:40;10.70;99.90
75321;DHT22;68337;52.196;5.660;2024-03-06T09:07:06;11.00;99.90
75321;DHT22;68337;52.196;5.660;2024-03-06T09:09:32;11.10;99.90
75321;DHT22;68337;52.196;5.660;2024-03-06T09:12:00;11.30;99.90
75321;DHT22;68337;52.196;5.660;2024-03-06T09:14:26;11.40;99.90
75321;DHT22;68337;52.196;5.660;2024-03-06T09:16:51;11.60;99.90
75321;DHT22;68337;52.196;5.660;2024-03-06T09:19:17;11.80;99.90
75321;DHT22;68337;52.196;5.660;2024-03-06T09:21:43;11.90;99.90
75321;DHT22;68337;52.196;5.660;2024-03-06T09:24:09;11.90;99.90
75321;DHT22;68337;52.196;5.660;2024-03-06T09:26:35;12.00;99.90
75321;DHT22;68337;52.196;5.660;2024-03-06T09:29:00;12.20;99.90
75321;DHT22;68337;52.196;5.660;2024-03-06T09:31:26;12.40;99.90
75321;DHT22;68337;52.196;5.660;2024-03-06T09:33:53;12.50;99.90
75321;DHT22;68337;52.196;5.660;2024-03-06T09:36:19;12.80;99.90
75321;DHT22;68337;52.196;5.660;2024-03-06T09:38:45;12.90;99.90
75321;DHT22;68337;52.196;5.660;2024-03-06T09:41:10;12.80;99.90
75321;DHT22;68337;52.196;5.660;2024-03-06T09:43:36;12.80;99.90
75321;DHT22;68337;52.196;5.660;2024-03-06T09:46:02;12.80;99.90
75321;DHT22;68337;52.196;5.660;2024-03-06T09:48:29;12.70;99.90
75321;DHT22;68337;52.196;5.660;2024-03-06T09:51:01;12.70;99.90
75321;DHT22;68337;52.196;5.660;2024-03-06T09:53:28;12.50;99.90
75321;DHT22;68337;52.196;5.660;2024-03-06T09:55:55;12.60;99.90
75321;DHT22;68337;52.196;5.660;2024-03-06T09:58:21;12.70;99.90
75321;DHT22;68337;52.196;5.660;2024-03-06T10:00:49;13.10;99.90
75321;DHT22;68337;52.196;5.660;2024-03-06T10:03:15;13.20;99.90
75321;DHT22;68337;52.196;5.660;2024-03-06T10:05:41;13.40;99.90
75321;DHT22;68337;52.196;5.660;2024-03-06T10:08:09;13.50;99.90
75321;DHT22;68337;52.196;5.660;2024-03-06T10:10:35;13.60;99.90
75321;DHT22;68337;52.196;5.660;2024-03-06T10:13:02;13.90;99.90
75321;DHT22;68337;52.196;5.660;2024-03-06T10:15:28;14.20;99.90
75321;DHT22;68337;52.196;5.660;2024-03-06T10:18:11;13.90;99.90
75321;DHT22;68337;52.196;5.660;2024-03-06T10:20:38;14.10;99.90
75321;DHT22;68337;52.196;5.660;2024-03-06T10:23:04;14.20;99.90
75321;DHT22;68337;52.196;5.660;2024-03-06T10:25:30;14.40;99.90
75321;DHT22;68337;52.196;5.660;2024-03-06T10:28:05;14.70;99.90
75321;DHT22;68337;52.196;5.660;2024-03-06T10:30:33;14.80;99.90
75321;DHT22;68337;52.196;5.660;2024-03-06T10:33:02;14.90;99.90
75321;DHT22;68337;52.196;5.660;2024-03-06T10:35:28;14.90;99.90
75321;DHT22;68337;52.196;5.660;2024-03-06T10:37:55;15.00;99.90
75321;DHT22;68337;52.196;5.660;2024-03-06T10:40:22;15.10;99.90
75321;DHT22;68337;52.196;5.660;2024-03-06T10:42:48;15.20;99.90
75321;DHT22;68337;52.196;5.660;2024-03-06T10:45:15;15.00;99.90
75321;DHT22;68337;52.196;5.660;2024-03-06T10:47:46;14.90;99.90
75321;DHT22;68337;52.196;5.660;2024-03-06T10:50:15;15.10;99.90
75321;DHT22;68337;52.196;5.660;2024-03-06T10:52:41;15.40;99.90
75321;DHT22;68337;52.196;5.660;2024-03-06T10:55:08;15.40;99.90
75321;DHT22;68337;52.196;5.660;2024-03-06T10:57:36;15.30;99.90
75321;DHT22;68337;52.196;5.660;2024-03-06T11:00:03;15.40;99.90
75321;DHT22;68337;52.196;5.660;2024-03-06T11:02:31;15.30;99.90
75321;DHT22;68337;52.196;5.660;2024-03-06T11:04:57;14.90;99.90
75321;DHT22;68337;52.196;5.660;2024-03-06T11:07:23;15.10;99.90
75321;DHT22;68337;52.196;5.660;2024-03-06T11:09:50;15.10;99.90
75321;DHT22;68337;52.196;5.660;2024-03-06T11:12:34;15.00;99.90
75321;DHT22;68337;52.196;5.660;2024-03-06T11:15:09;15.40;99.90
75321;DHT22;68337;52.196;5.660;2024-03-06T11:17:34;15.50;99.90
75321;DHT22;68337;52.196;5.660;2024-03-06T11:28:26;15.40;99.90
75321;DHT22;68337;52.196;5.660;2024-03-06T11:33:19;15.70;99.90
75321;DHT22;68337;52.196;5.660;2024-03-06T11:39:02;15.70;99.90
75321;DHT22;68337;52.196;5.660;2024-03-06T11:41:31;15.60;99.90
75321;DHT22;68337;52.196;5.660;2024-03-06T11:43:59;15.60;99.90
75321;DHT22;68337;52.196;5.660;2024-03-06T11:46:46;15.60;99.90
75321;DHT22;68337;52.196;5.660;2024-03-06T11:49:17;15.90;99.90
75321;DHT22;68337;52.196;5.660;2024-03-06T11:51:46;15.90;99.90
75321;DHT22;68337;52.196;5.660;2024-03-06T11:54:13;15.80;99.90
75321;DHT22;68337;52.196;5.660;2024-03-06T11:56:40;15.70;99.90
75321;DHT22;68337;52.196;5.660;2024-03-06T11:59:07;15.50;99.90
75321;DHT22;68337;52.196;5.660;2024-03-06T12:01:33;15.70;99.90
75321;DHT22;68337;52.196;5.660;2024-03-06T12:04:00;15.80;99.90
75321;DHT22;68337;52.196;5.660;2024-03-06T12:06:27;16.10;99.90
75321;DHT22;68337;52.196;5.660;2024-03-06T12:08:54;16.10;99.90
75321;DHT22;68337;52.196;5.660;2024-03-06T12:11:19;15.90;99.90
75321;DHT22;68337;52.196;5.660;2024-03-06T12:13:48;15.90;99.90
75321;DHT22;68337;52.196;5.660;2024-03-06T12:16:14;15.90;99.90
75321;DHT22;68337;52.196;5.660;2024-03-06T12:18:42;16.00;99.90
75321;DHT22;68337;52.196;5.660;2024-03-06T12:21:10;15.80;99.90
75321;DHT22;68337;52.196;5.660;2024-03-06T12:23:36;15.90;99.90
75321;DHT22;68337;52.196;5.660;2024-03-06T12:26:04;15.80;99.90
75321;DHT22;68337;52.196;5.660;2024-03-06T12:28:30;15.80;99.90
75321;DHT22;68337;52.196;5.660;2024-03-06T12:30:56;15.90;99.90
75321;DHT22;68337;52.196;5.660;2024-03-06T12:33:26;15.90;99.90
75321;DHT22;68337;52.196;5.660;2024-03-06T12:36:07;16.00;99.90
75321;DHT22;68337;52.196;5.660;2024-03-06T12:38:37;16.20;99.90
75321;DHT22;68337;52.196;5.660;2024-03-06T12:41:03;16.30;99.90
75321;DHT22;68337;52.196;5.660;2024-03-06T12:43:29;16.30;99.90
75321;DHT22;68337;52.196;5.660;2024-03-06T12:45:56;16.20;99.90
75321;DHT22;68337;52.196;5.660;2024-03-06T12:48:23;15.90;99.90
75321;DHT22;68337;52.196;5.660;2024-03-06T12:50:49;16.10;99.90
75321;DHT22;68337;52.196;5.660;2024-03-06T12:53:18;16.10;99.90
75321;DHT22;68337;52.196;5.660;2024-03-06T12:55:44;16.30;99.90
75321;DHT22;68337;52.196;5.660;2024-03-06T12:58:12;16.30;99.90
75321;DHT22;68337;52.196;5.660;2024-03-06T13:00:38;16.30;99.90
75321;DHT22;68337;52.196;5.660;2024-03-06T13:03:04;16.10;99.90
75321;DHT22;68337;52.196;5.660;2024-03-06T13:05:30;16.30;99.90
75321;DHT22;68337;52.196;5.660;2024-03-06T13:07:57;16.60;99.90
75321;DHT22;68337;52.196;5.660;2024-03-06T13:10:23;16.30;99.90
75321;DHT22;68337;52.196;5.660;2024-03-06T13:12:48;15.90;99.90
75321;DHT22;68337;52.196;5.660;2024-03-06T13:15:14;16.10;99.90
75321;DHT22;68337;52.196;5.660;2024-03-06T13:17:40;16.10;99.90
75321;DHT22;68337;52.196;5.660;2024-03-06T13:20:07;16.40;99.90
75321;DHT22;68337;52.196;5.660;2024-03-06T13:22:39;16.50;99.90
75321;DHT22;68337;52.196;5.660;2024-03-06T13:25:06;16.70;99.90
75321;DHT22;68337;52.196;5.660;2024-03-06T13:27:31;16.70;99.90
75321;DHT22;68337;52.196;5.660;2024-03-06T13:29:57;16.40;99.90
75321;DHT22;68337;52.196;5.660;2024-03-06T13:32:24;15.90;99.90
75321;DHT22;68337;52.196;5.660;2024-03-06T13:34:49;15.50;99.90
75321;DHT22;68337;52.196;5.660;2024-03-06T13:37:15;15.10;99.90
75321;DHT22;68337;52.196;5.660;2024-03-06T13:39:42;14.80;99.90
75321;DHT22;68337;52.196;5.660;2024-03-06T13:42:08;14.80;99.90
75321;DHT22;68337;52.196;5.660;2024-03-06T13:44:35;14.70;99.90
75321;DHT22;68337;52.196;5.660;2024-03-06T13:47:01;14.70;99.90
75321;DHT22;68337;52.196;5.660;2024-03-06T13:49:39;14.90;99.90
75321;DHT22;68337;52.196;5.660;2024-03-06T13:52:06;15.30;99.90
75321;DHT22;68337;52.196;5.660;2024-03-06T13:54:33;15.10;99.90
75321;DHT22;68337;52.196;5.660;2024-03-06T13:57:02;15.10;99.90
75321;DHT22;68337;52.196;5.660;2024-03-06T13:59:30;15.00;99.90
75321;DHT22;68337;52.196;5.660;2024-03-06T14:01:56;14.80;99.90
75321;DHT22;68337;52.196;5.660;2024-03-06T14:04:22;14.60;99.90
75321;DHT22;68337;52.196;5.660;2024-03-06T14:06:49;14.50;99.90
75321;DHT22;68337;52.196;5.660;2024-03-06T14:09:14;14.80;99.90
75321;DHT22;68337;52.196;5.660;2024-03-06T14:11:40;15.00;99.90
75321;DHT22;68337;52.196;5.660;2024-03-06T14:14:06;15.20;99.90
75321;DHT22;68337;52.196;5.660;2024-03-06T14:16:32;15.20;99.90
75321;DHT22;68337;52.196;5.660;2024-03-06T14:18:57;15.20;99.90
75321;DHT22;68337;52.196;5.660;2024-03-06T14:21:23;15.10;99.90
75321;DHT22;68337;52.196;5.660;2024-03-06T14:23:49;15.20;99.90
75321;DHT22;68337;52.196;5.660;2024-03-06T14:26:15;15.00;99.90
75321;DHT22;68337;52.196;5.660;2024-03-06T14:28:41;15.00;99.90
75321;DHT22;68337;52.196;5.660;2024-03-06T14:31:07;15.40;99.90
75321;DHT22;68337;52.196;5.660;2024-03-06T14:33:39;15.30;99.90
75321;DHT22;68337;52.196;5.660;2024-03-06T14:36:05;14.90;99.90
75321;DHT22;68337;52.196;5.660;2024-03-06T14:38:31;14.60;99.90
75321;DHT22;68337;52.196;5.660;2024-03-06T14:40:58;14.60;99.90
75321;DHT22;68337;52.196;5.660;2024-03-06T14:43:24;14.70;99.90
75321;DHT22;68337;52.196;5.660;2024-03-06T14:45:51;14.60;99.90
75321;DHT22;68337;52.196;5.660;2024-03-06T14:48:17;14.40;99.90
75321;DHT22;68337;52.196;5.660;2024-03-06T14:50:43;14.20;99.90
75321;DHT22;68337;52.196;5.660;2024-03-06T14:53:09;14.10;99.90
75321;DHT22;68337;52.196;5.660;2024-03-06T14:55:34;14.20;99.90
75321;DHT22;68337;52.196;5.660;2024-03-06T14:58:00;14.30;99.90
75321;DHT22;68337;52.196;5.660;2024-03-06T15:00:26;14.20;99.90
75321;DHT22;68337;52.196;5.660;2024-03-06T15:02:52;14.20;99.90
75321;DHT22;68337;52.196;5.660;2024-03-06T15:05:18;14.00;99.90
75321;DHT22;68337;52.196;5.660;2024-03-06T15:07:44;14.00;99.90
75321;DHT22;68337;52.196;5.660;2024-03-06T15:10:10;14.00;99.90
75321;DHT22;68337;52.196;5.660;2024-03-06T15:12:36;14.10;99.90
75321;DHT22;68337;52.196;5.660;2024-03-06T15:15:03;14.10;99.90
75321;DHT22;68337;52.196;5.660;2024-03-06T15:17:32;14.00;99.90
75321;DHT22;68337;52.196;5.660;2024-03-06T15:19:58;13.80;99.90
75321;DHT22;68337;52.196;5.660;2024-03-06T15:22:25;13.80;99.90
75321;DHT22;68337;52.196;5.660;2024-03-06T15:24:51;13.70;99.90
75321;DHT22;68337;52.196;5.660;2024-03-06T15:27:17;13.60;99.90
75321;DHT22;68337;52.196;5.660;2024-03-06T15:29:43;13.60;99.90
75321;DHT22;68337;52.196;5.660;2024-03-06T15:32:09;13.50;99.90
75321;DHT22;68337;52.196;5.660;2024-03-06T15:34:36;13.50;99.90
75321;DHT22;68337;52.196;5.660;2024-03-06T15:37:02;13.50;99.90
75321;DHT22;68337;52.196;5.660;2024-03-06T15:39:28;13.40;99.90
75321;DHT22;68337;52.196;5.660;2024-03-06T15:41:54;13.50;99.90
75321;DHT22;68337;52.196;5.660;2024-03-06T15:44:22;13.50;99.90
75321;DHT22;68337;52.196;5.660;2024-03-06T15:46:49;13.50;99.90
75321;DHT22;68337;52.196;5.660;2024-03-06T15:49:22;13.50;99.90
75321;DHT22;68337;52.196;5.660;2024-03-06T15:51:54;13.50;99.90